sensor_id;sensor_type;location;lat;lon;timestamp;temperature;humidity
67899;DHT22;54699;51.796;10.956;2023-03-29T00:01:50;18.50;45.80
67899;DHT22;54699;51.796;10.956;2023-03-29T00:04:17;18.50;45.80
67899;DHT22;54699;51.796;10.956;2023-03-29T00:06:44;18.50;45.90
67899;DHT22;54699;51.796;10.956;2023-03-29T00:09:12;18.50;45.80
67899;DHT22;54699;51.796;10.956;2023-03-29T00:11:39;18.50;45.90
67899;DHT22;54699;51.796;10.956;2023-03-29T00:14:08;18.50;45.90
67899;DHT22;54699;51.796;10.956;2023-03-29T00:16:34;18.50;45.90
67899;DHT22;54699;51.796;10.956;2023-03-29T00:19:01;18.50;45.90
67899;DHT22;54699;51.796;10.956;2023-03-29T00:21:28;18.50;45.90
67899;DHT22;54699;51.796;10.956;2023-03-29T00:23:55;18.50;45.90
67899;DHT22;54699;51.796;10.956;2023-03-29T00:26:23;18.50;45.90
67899;DHT22;54699;51.796;10.956;2023-03-29T00:28:50;18.50;45.90
67899;DHT22;54699;51.796;10.956;2023-03-29T00:31:18;18.50;45.90
67899;DHT22;54699;51.796;10.956;2023-03-29T00:33:45;18.50;45.90
67899;DHT22;54699;51.796;10.956;2023-03-29T00:36:12;18.50;45.90
67899;DHT22;54699;51.796;10.956;2023-03-29T00:38:40;18.50;45.90
67899;DHT22;54699;51.796;10.956;2023-03-29T00:41:07;18.50;45.90
67899;DHT22;54699;51.796;10.956;2023-03-29T00:43:50;18.50;45.90
67899;DHT22;54699;51.796;10.956;2023-03-29T00:46:19;18.50;45.90
67899;DHT22;54699;51.796;10.956;2023-03-29T00:48:47;18.50;45.90
67899;DHT22;54699;51.796;10.956;2023-03-29T00:51:14;18.50;45.90
67899;DHT22;54699;51.796;10.956;2023-03-29T00:53:44;18.50;46.00
67899;DHT22;54699;51.796;10.956;2023-03-29T00:56:15;18.50;46.00
67899;DHT22;54699;51.796;10.956;2023-03-29T00:58:48;18.50;46.00
67899;DHT22;54699;51.796;10.956;2023-03-29T01:01:22;18.50;46.00
67899;DHT22;54699;51.796;10.956;2023-03-29T01:03:53;18.50;46.00
67899;DHT22;54699;51.796;10.956;2023-03-29T01:06:27;18.50;46.00
67899;DHT22;54699;51.796;10.956;2023-03-29T01:08:58;18.50;46.00
67899;DHT22;54699;51.796;10.956;2023-03-29T01:11:29;18.50;46.00
67899;DHT22;54699;51.796;10.956;2023-03-29T01:14:00;18.50;46.00
67899;DHT22;54699;51.796;10.956;2023-03-29T01:16:31;18.50;46.00
67899;DHT22;54699;51.796;10.956;2023-03-29T01:19:02;18.50;46.90
67899;DHT22;54699;51.796;10.956;2023-03-29T01:21:32;18.50;46.10
67899;DHT22;54699;51.796;10.956;2023-03-29T01:27:03;18.40;46.00
67899;DHT22;54699;51.796;10.956;2023-03-29T01:29:40;18.40;46.00
67899;DHT22;54699;51.796;10.956;2023-03-29T01:32:12;18.50;46.00
67899;DHT22;54699;51.796;10.956;2023-03-29T01:34:43;18.40;46.00
67899;DHT22;54699;51.796;10.956;2023-03-29T01:37:17;18.40;46.00
67899;DHT22;54699;51.796;10.956;2023-03-29T01:39:49;18.40;46.00
67899;DHT22;54699;51.796;10.956;2023-03-29T01:42:22;18.40;46.00
67899;DHT22;54699;51.796;10.956;2023-03-29T01:45:00;18.40;46.90
67899;DHT22;54699;51.796;10.956;2023-03-29T01:47:38;18.40;46.10
67899;DHT22;54699;51.796;10.956;2023-03-29T01:50:12;18.40;46.00
67899;DHT22;54699;51.796;10.956;2023-03-29T01:52:44;18.40;46.10
67899;DHT22;54699;51.796;10.956;2023-03-29T01:55:17;18.40;46.10
67899;DHT22;54699;51.796;10.956;2023-03-29T01:57:46;18.40;46.10
67899;DHT22;54699;51.796;10.956;2023-03-29T02:00:18;18.40;46.00
67899;DHT22;54699;51.796;10.956;2023-03-29T02:02:48;18.40;46.00
67899;DHT22;54699;51.796;10.956;2023-03-29T02:05:18;18.40;46.00
67899;DHT22;54699;51.796;10.956;2023-03-29T02:07:48;18.40;46.00
67899;DHT22;54699;51.796;10.956;2023-03-29T02:10:17;18.40;46.00
67899;DHT22;54699;51.796;10.956;2023-03-29T02:12:44;18.40;46.00
67899;DHT22;54699;51.796;10.956;2023-03-29T02:15:11;18.40;46.00
67899;DHT22;54699;51.796;10.956;2023-03-29T02:17:41;18.40;46.00
67899;DHT22;54699;51.796;10.956;2023-03-29T02:20:09;18.40;46.00
67899;DHT22;54699;51.796;10.956;2023-03-29T02:22:47;18.40;46.00
67899;DHT22;54699;51.796;10.956;2023-03-29T02:25:20;18.40;46.00
67899;DHT22;54699;51.796;10.956;2023-03-29T02:27:48;18.40;46.00
67899;DHT22;54699;51.796;10.956;2023-03-29T02:30:16;18.40;46.00
67899;DHT22;54699;51.796;10.956;2023-03-29T02:32:47;18.30;45.90
67899;DHT22;54699;51.796;10.956;2023-03-29T02:35:20;18.40;46.00
67899;DHT22;54699;51.796;10.956;2023-03-29T02:37:53;18.40;46.00
67899;DHT22;54699;51.796;10.956;2023-03-29T02:40:25;18.40;46.00
67899;DHT22;54699;51.796;10.956;2023-03-29T02:42:52;18.40;46.00
67899;DHT22;54699;51.796;10.956;2023-03-29T02:45:21;18.40;46.00
67899;DHT22;54699;51.796;10.956;2023-03-29T02:47:52;18.40;46.00
67899;DHT22;54699;51.796;10.956;2023-03-29T02:50:21;18.30;45.90
67899;DHT22;54699;51.796;10.956;2023-03-29T02:52:51;18.40;46.00
67899;DHT22;54699;51.796;10.956;2023-03-29T02:55:22;18.30;45.90
67899;DHT22;54699;51.796;10.956;2023-03-29T02:57:55;18.30;46.00
67899;DHT22;54699;51.796;10.956;2023-03-29T03:00:22;18.30;45.90
67899;DHT22;54699;51.796;10.956;2023-03-29T03:02:49;18.40;46.00
67899;DHT22;54699;51.796;10.956;2023-03-29T03:05:18;18.30;45.90
67899;DHT22;54699;51.796;10.956;2023-03-29T03:07:45;18.30;46.00
67899;DHT22;54699;51.796;10.956;2023-03-29T03:10:12;18.30;46.00
67899;DHT22;54699;51.796;10.956;2023-03-29T03:12:39;18.30;46.00
67899;DHT22;54699;51.796;10.956;2023-03-29T03:15:06;18.30;46.00
67899;DHT22;54699;51.796;10.956;2023-03-29T03:17:34;18.30;46.00
67899;DHT22;54699;51.796;10.956;2023-03-29T03:20:06;18.30;46.00
67899;DHT22;54699;51.796;10.956;2023-03-29T03:22:38;18.30;46.00
67899;DHT22;54699;51.796;10.956;2023-03-29T03:25:05;18.30;46.00
67899;DHT22;54699;51.796;10.956;2023-03-29T03:27:36;18.30;46.00
67899;DHT22;54699;51.796;10.956;2023-03-29T03:30:03;18.30;46.00
67899;DHT22;54699;51.796;10.956;2023-03-29T03:32:31;18.30;46.00
67899;DHT22;54699;51.796;10.956;2023-03-29T03:34:58;18.30;46.00
67899;DHT22;54699;51.796;10.956;2023-03-29T03:37:25;18.30;46.00
67899;DHT22;54699;51.796;10.956;2023-03-29T03:39:53;18.30;46.00
67899;DHT22;54699;51.796;10.956;2023-03-29T03:42:20;18.30;46.10
67899;DHT22;54699;51.796;10.956;2023-03-29T03:44:46;18.30;46.00
67899;DHT22;54699;51.796;10.956;2023-03-29T03:47:14;18.30;46.10
67899;DHT22;54699;51.796;10.956;2023-03-29T03:49:41;18.30;46.10
67899;DHT22;54699;51.796;10.956;2023-03-29T03:52:08;18.30;46.10
67899;DHT22;54699;51.796;10.956;2023-03-29T03:54:34;18.30;46.10
67899;DHT22;54699;51.796;10.956;2023-03-29T03:57:03;18.30;46.10
67899;DHT22;54699;51.796;10.956;2023-03-29T03:59:30;18.30;46.10
67899;DHT22;54699;51.796;10.956;2023-03-29T04:01:57;18.20;46.10
67899;DHT22;54699;51.796;10.956;2023-03-29T04:04:24;18.20;46.10
67899;DHT22;54699;51.796;10.956;2023-03-29T04:06:52;18.20;46.10
67899;DHT22;54699;51.796;10.956;2023-03-29T04:09:18;18.20;46.10
67899;DHT22;54699;51.796;10.956;2023-03-29T04:11:46;18.20;46.10
67899;DHT22;54699;51.796;10.956;2023-03-29T04:14:15;18.20;46.10
67899;DHT22;54699;51.796;10.956;2023-03-29T04:16:42;18.20;46.10
67899;DHT22;54699;51.796;10.956;2023-03-29T04:19:09;18.20;46.10
67899;DHT22;54699;51.796;10.956;2023-03-29T04:21:36;18.30;46.20
67899;DHT22;54699;51.796;10.956;2023-03-29T04:24:03;18.20;46.00
67899;DHT22;54699;51.796;10.956;2023-03-29T04:26:30;18.20;46.00
67899;DHT22;54699;51.796;10.956;2023-03-29T04:28:57;18.20;46.10
67899;DHT22;54699;51.796;10.956;2023-03-29T04:31:25;18.20;45.60
67899;DHT22;54699;51.796;10.956;2023-03-29T04:33:52;18.20;45.90
67899;DHT22;54699;51.796;10.956;2023-03-29T04:36:18;18.20;45.80
67899;DHT22;54699;51.796;10.956;2023-03-29T04:38:45;18.20;45.80
67899;DHT22;54699;51.796;10.956;2023-03-29T04:41:13;18.20;45.80
67899;DHT22;54699;51.796;10.956;2023-03-29T04:43:40;18.20;45.40
67899;DHT22;54699;51.796;10.956;2023-03-29T04:46:10;18.20;45.70
67899;DHT22;54699;51.796;10.956;2023-03-29T04:48:39;18.20;45.70
67899;DHT22;54699;51.796;10.956;2023-03-29T04:51:06;18.30;45.40
67899;DHT22;54699;51.796;10.956;2023-03-29T04:53:33;18.30;45.10
67899;DHT22;54699;51.796;10.956;2023-03-29T04:56:02;18.20;45.10
67899;DHT22;54699;51.796;10.956;2023-03-29T04:58:30;18.20;44.70
67899;DHT22;54699;51.796;10.956;2023-03-29T05:01:01;18.10;44.00
67899;DHT22;54699;51.796;10.956;2023-03-29T05:03:28;18.00;43.90
67899;DHT22;54699;51.796;10.956;2023-03-29T05:06:02;18.10;45.20
67899;DHT22;54699;51.796;10.956;2023-03-29T05:08:33;18.10;44.90
67899;DHT22;54699;51.796;10.956;2023-03-29T05:11:03;18.10;44.60
67899;DHT22;54699;51.796;10.956;2023-03-29T05:13:32;18.00;44.60
67899;DHT22;54699;51.796;10.956;2023-03-29T05:15:59;18.00;43.00
67899;DHT22;54699;51.796;10.956;2023-03-29T05:18:27;18.10;44.40
67899;DHT22;54699;51.796;10.956;2023-03-29T05:20:56;18.00;43.70
67899;DHT22;54699;51.796;10.956;2023-03-29T05:23:26;18.10;44.50
67899;DHT22;54699;51.796;10.956;2023-03-29T05:25:53;18.20;45.00
67899;DHT22;54699;51.796;10.956;2023-03-29T05:28:21;18.10;44.90
67899;DHT22;54699;51.796;10.956;2023-03-29T05:30:57;18.20;44.80
67899;DHT22;54699;51.796;10.956;2023-03-29T05:33:25;18.10;44.40
67899;DHT22;54699;51.796;10.956;2023-03-29T05:35:57;18.10;44.40
67899;DHT22;54699;51.796;10.956;2023-03-29T05:38:26;18.10;44.40
67899;DHT22;54699;51.796;10.956;2023-03-29T05:40:54;18.10;44.40
67899;DHT22;54699;51.796;10.956;2023-03-29T05:43:22;18.10;44.60
67899;DHT22;54699;51.796;10.956;2023-03-29T05:45:51;18.10;44.60
67899;DHT22;54699;51.796;10.956;2023-03-29T05:48:18;18.10;44.30
67899;DHT22;54699;51.796;10.956;2023-03-29T05:50:46;18.20;44.10
67899;DHT22;54699;51.796;10.956;2023-03-29T05:53:14;18.20;43.70
67899;DHT22;54699;51.796;10.956;2023-03-29T05:55:44;18.20;43.90
67899;DHT22;54699;51.796;10.956;2023-03-29T05:58:16;18.20;43.80
67899;DHT22;54699;51.796;10.956;2023-03-29T06:00:48;18.10;44.70
67899;DHT22;54699;51.796;10.956;2023-03-29T06:03:32;18.10;44.00
67899;DHT22;54699;51.796;10.956;2023-03-29T06:06:03;18.10;42.90
67899;DHT22;54699;51.796;10.956;2023-03-29T06:08:31;18.10;43.60
67899;DHT22;54699;51.796;10.956;2023-03-29T06:11:02;18.00;43.00
67899;DHT22;54699;51.796;10.956;2023-03-29T06:13:31;17.90;42.00
67899;DHT22;54699;51.796;10.956;2023-03-29T06:16:00;17.90;43.80
67899;DHT22;54699;51.796;10.956;2023-03-29T06:18:28;18.00;44.00
67899;DHT22;54699;51.796;10.956;2023-03-29T06:20:55;18.00;44.20
67899;DHT22;54699;51.796;10.956;2023-03-29T06:23:22;18.00;44.20
67899;DHT22;54699;51.796;10.956;2023-03-29T06:25:50;18.10;44.20
67899;DHT22;54699;51.796;10.956;2023-03-29T06:28:19;18.10;44.10
67899;DHT22;54699;51.796;10.956;2023-03-29T06:30:47;18.10;44.00
67899;DHT22;54699;51.796;10.956;2023-03-29T06:33:18;18.10;44.00
67899;DHT22;54699;51.796;10.956;2023-03-29T06:35:46;18.10;44.10
67899;DHT22;54699;51.796;10.956;2023-03-29T06:38:14;18.20;44.10
67899;DHT22;54699;51.796;10.956;2023-03-29T06:40:41;18.20;44.10
67899;DHT22;54699;51.796;10.956;2023-03-29T06:43:09;18.20;44.40
67899;DHT22;54699;51.796;10.956;2023-03-29T06:45:37;18.20;44.20
67899;DHT22;54699;51.796;10.956;2023-03-29T06:48:05;18.20;44.20
67899;DHT22;54699;51.796;10.956;2023-03-29T06:50:33;18.20;44.20
67899;DHT22;54699;51.796;10.956;2023-03-29T06:53:00;18.20;44.30
67899;DHT22;54699;51.796;10.956;2023-03-29T06:55:28;18.20;44.40
67899;DHT22;54699;51.796;10.956;2023-03-29T06:57:55;18.20;44.00
67899;DHT22;54699;51.796;10.956;2023-03-29T07:00:23;18.20;43.90
67899;DHT22;54699;51.796;10.956;2023-03-29T07:02:56;18.20;44.30
67899;DHT22;54699;51.796;10.956;2023-03-29T07:05:26;18.20;44.00
67899;DHT22;54699;51.796;10.956;2023-03-29T07:07:53;18.20;44.40
67899;DHT22;54699;51.796;10.956;2023-03-29T07:10:25;18.20;44.50
67899;DHT22;54699;51.796;10.956;2023-03-29T07:12:56;18.20;44.60
67899;DHT22;54699;51.796;10.956;2023-03-29T07:15:25;18.20;44.60
67899;DHT22;54699;51.796;10.956;2023-03-29T07:17:53;18.20;44.60
67899;DHT22;54699;51.796;10.956;2023-03-29T07:20:21;18.20;44.60
67899;DHT22;54699;51.796;10.956;2023-03-29T07:22:49;18.20;44.50
67899;DHT22;54699;51.796;10.956;2023-03-29T07:25:17;18.30;44.50
67899;DHT22;54699;51.796;10.956;2023-03-29T07:27:45;18.20;45.20
67899;DHT22;54699;51.796;10.956;2023-03-29T07:30:14;18.20;44.50
67899;DHT22;54699;51.796;10.956;2023-03-29T07:32:43;18.20;44.50
67899;DHT22;54699;51.796;10.956;2023-03-29T07:35:12;18.20;45.10
67899;DHT22;54699;51.796;10.956;2023-03-29T07:37:43;18.20;44.90
67899;DHT22;54699;51.796;10.956;2023-03-29T07:40:12;18.20;45.00
67899;DHT22;54699;51.796;10.956;2023-03-29T07:42:48;18.10;44.40
67899;DHT22;54699;51.796;10.956;2023-03-29T07:45:21;18.20;44.70
67899;DHT22;54699;51.796;10.956;2023-03-29T07:47:52;18.30;45.40
67899;DHT22;54699;51.796;10.956;2023-03-29T07:50:20;18.40;44.80
67899;DHT22;54699;51.796;10.956;2023-03-29T07:52:52;18.50;45.50
67899;DHT22;54699;51.796;10.956;2023-03-29T07:55:27;18.60;46.00
67899;DHT22;54699;51.796;10.956;2023-03-29T07:57:59;18.70;45.70
67899;DHT22;54699;51.796;10.956;2023-03-29T08:00:29;18.70;46.30
67899;DHT22;54699;51.796;10.956;2023-03-29T08:02:58;18.80;45.10
67899;DHT22;54699;51.796;10.956;2023-03-29T08:05:27;18.60;44.60
67899;DHT22;54699;51.796;10.956;2023-03-29T08:07:56;18.60;45.00
67899;DHT22;54699;51.796;10.956;2023-03-29T08:10:23;18.70;45.10
67899;DHT22;54699;51.796;10.956;2023-03-29T08:12:52;18.60;43.90
67899;DHT22;54699;51.796;10.956;2023-03-29T08:15:19;18.60;45.00
67899;DHT22;54699;51.796;10.956;2023-03-29T08:17:47;18.50;45.30
67899;DHT22;54699;51.796;10.956;2023-03-29T08:20:14;18.50;46.10
67899;DHT22;54699;51.796;10.956;2023-03-29T08:22:42;18.50;45.50
67899;DHT22;54699;51.796;10.956;2023-03-29T08:25:11;18.50;45.90
67899;DHT22;54699;51.796;10.956;2023-03-29T08:27:38;18.50;46.80
67899;DHT22;54699;51.796;10.956;2023-03-29T08:30:05;18.50;45.90
67899;DHT22;54699;51.796;10.956;2023-03-29T08:32:34;18.50;45.90
67899;DHT22;54699;51.796;10.956;2023-03-29T08:35:02;18.50;45.90
67899;DHT22;54699;51.796;10.956;2023-03-29T08:37:42;18.50;45.90
67899;DHT22;54699;51.796;10.956;2023-03-29T08:40:11;18.50;46.10
67899;DHT22;54699;51.796;10.956;2023-03-29T08:45:45;18.50;47.10
67899;DHT22;54699;51.796;10.956;2023-03-29T08:48:20;18.40;46.20
67899;DHT22;54699;51.796;10.956;2023-03-29T08:50:53;18.50;46.30
67899;DHT22;54699;51.796;10.956;2023-03-29T08:53:26;18.50;46.20
67899;DHT22;54699;51.796;10.956;2023-03-29T08:56:00;18.50;46.40
67899;DHT22;54699;51.796;10.956;2023-03-29T08:58:33;18.50;46.00
67899;DHT22;54699;51.796;10.956;2023-03-29T09:01:02;18.50;45.50
67899;DHT22;54699;51.796;10.956;2023-03-29T09:03:34;18.50;45.00
67899;DHT22;54699;51.796;10.956;2023-03-29T09:06:07;18.50;45.60
67899;DHT22;54699;51.796;10.956;2023-03-29T09:08:36;18.50;45.70
67899;DHT22;54699;51.796;10.956;2023-03-29T09:14:00;18.50;45.50
67899;DHT22;54699;51.796;10.956;2023-03-29T09:16:40;18.50;45.70
67899;DHT22;54699;51.796;10.956;2023-03-29T09:19:15;18.50;46.00
67899;DHT22;54699;51.796;10.956;2023-03-29T09:21:53;18.50;46.50
67899;DHT22;54699;51.796;10.956;2023-03-29T09:24:37;18.60;46.90
67899;DHT22;54699;51.796;10.956;2023-03-29T09:27:27;18.60;46.80
67899;DHT22;54699;51.796;10.956;2023-03-29T09:30:08;18.60;46.30
67899;DHT22;54699;51.796;10.956;2023-03-29T09:32:46;18.60;46.10
67899;DHT22;54699;51.796;10.956;2023-03-29T09:35:20;18.60;46.10
67899;DHT22;54699;51.796;10.956;2023-03-29T09:37:49;18.60;46.00
67899;DHT22;54699;51.796;10.956;2023-03-29T09:40:23;18.60;45.70
67899;DHT22;54699;51.796;10.956;2023-03-29T09:43:00;18.70;44.60
67899;DHT22;54699;51.796;10.956;2023-03-29T09:45:30;18.70;45.70
67899;DHT22;54699;51.796;10.956;2023-03-29T09:48:01;18.90;46.30
67899;DHT22;54699;51.796;10.956;2023-03-29T09:50:33;18.90;46.10
67899;DHT22;54699;51.796;10.956;2023-03-29T09:53:02;19.00;46.20
67899;DHT22;54699;51.796;10.956;2023-03-29T09:55:31;19.10;46.20
67899;DHT22;54699;51.796;10.956;2023-03-29T09:58:06;19.10;46.40
67899;DHT22;54699;51.796;10.956;2023-03-29T10:00:51;19.20;46.60
67899;DHT22;54699;51.796;10.956;2023-03-29T10:03:26;19.40;46.60
67899;DHT22;54699;51.796;10.956;2023-03-29T10:05:56;19.40;46.60
67899;DHT22;54699;51.796;10.956;2023-03-29T10:08:34;19.50;46.20
67899;DHT22;54699;51.796;10.956;2023-03-29T10:11:05;19.30;45.70
67899;DHT22;54699;51.796;10.956;2023-03-29T10:13:41;19.40;45.40
67899;DHT22;54699;51.796;10.956;2023-03-29T10:16:16;19.30;45.30
67899;DHT22;54699;51.796;10.956;2023-03-29T10:18:45;19.30;45.30
67899;DHT22;54699;51.796;10.956;2023-03-29T10:21:14;19.30;45.50
67899;DHT22;54699;51.796;10.956;2023-03-29T10:23:44;19.30;46.40
67899;DHT22;54699;51.796;10.956;2023-03-29T10:26:15;19.30;44.40
67899;DHT22;54699;51.796;10.956;2023-03-29T10:28:51;19.30;46.00
67899;DHT22;54699;51.796;10.956;2023-03-29T10:31:21;19.20;43.30
67899;DHT22;54699;51.796;10.956;2023-03-29T10:33:53;19.30;44.10
67899;DHT22;54699;51.796;10.956;2023-03-29T10:36:22;19.30;43.60
67899;DHT22;54699;51.796;10.956;2023-03-29T10:38:51;19.30;42.90
67899;DHT22;54699;51.796;10.956;2023-03-29T10:41:22;19.30;42.60
67899;DHT22;54699;51.796;10.956;2023-03-29T10:43:53;19.30;43.40
67899;DHT22;54699;51.796;10.956;2023-03-29T10:46:21;19.30;43.00
67899;DHT22;54699;51.796;10.956;2023-03-29T10:48:50;19.30;43.30
67899;DHT22;54699;51.796;10.956;2023-03-29T10:51:22;19.30;43.40
67899;DHT22;54699;51.796;10.956;2023-03-29T10:53:55;19.30;43.20
67899;DHT22;54699;51.796;10.956;2023-03-29T10:56:25;19.40;43.50
67899;DHT22;54699;51.796;10.956;2023-03-29T10:59:06;19.40;43.60
67899;DHT22;54699;51.796;10.956;2023-03-29T11:01:58;19.40;44.40
67899;DHT22;54699;51.796;10.956;2023-03-29T11:04:44;19.40;43.90
67899;DHT22;54699;51.796;10.956;2023-03-29T11:07:17;19.30;44.10
67899;DHT22;54699;51.796;10.956;2023-03-29T11:09:56;19.30;43.50
67899;DHT22;54699;51.796;10.956;2023-03-29T11:12:32;19.30;43.80
67899;DHT22;54699;51.796;10.956;2023-03-29T11:15:11;19.30;44.00
67899;DHT22;54699;51.796;10.956;2023-03-29T11:17:57;19.30;43.60
67899;DHT22;54699;51.796;10.956;2023-03-29T11:20:37;19.30;44.60
67899;DHT22;54699;51.796;10.956;2023-03-29T11:23:22;19.30;43.70
67899;DHT22;54699;51.796;10.956;2023-03-29T11:26:03;19.30;44.70
67899;DHT22;54699;51.796;10.956;2023-03-29T11:28:38;19.30;44.10
67899;DHT22;54699;51.796;10.956;2023-03-29T11:31:16;19.40;44.20
67899;DHT22;54699;51.796;10.956;2023-03-29T11:33:53;19.40;44.30
67899;DHT22;54699;51.796;10.956;2023-03-29T11:36:30;19.40;44.40
67899;DHT22;54699;51.796;10.956;2023-03-29T11:39:04;19.40;44.80
67899;DHT22;54699;51.796;10.956;2023-03-29T11:41:43;19.40;44.70
67899;DHT22;54699;51.796;10.956;2023-03-29T11:44:16;19.50;45.50
67899;DHT22;54699;51.796;10.956;2023-03-29T11:46:51;19.40;43.30
67899;DHT22;54699;51.796;10.956;2023-03-29T11:49:24;19.40;44.10
67899;DHT22;54699;51.796;10.956;2023-03-29T11:51:55;19.40;45.00
67899;DHT22;54699;51.796;10.956;2023-03-29T11:54:29;19.40;44.70
67899;DHT22;54699;51.796;10.956;2023-03-29T11:57:01;19.40;44.70
67899;DHT22;54699;51.796;10.956;2023-03-29T11:59:38;19.40;44.80
67899;DHT22;54699;51.796;10.956;2023-03-29T12:02:14;19.40;42.80
67899;DHT22;54699;51.796;10.956;2023-03-29T12:04:47;19.50;42.80
67899;DHT22;54699;51.796;10.956;2023-03-29T12:07:19;19.50;43.00
67899;DHT22;54699;51.796;10.956;2023-03-29T12:09:52;19.50;43.70
67899;DHT22;54699;51.796;10.956;2023-03-29T12:12:25;19.50;43.80
67899;DHT22;54699;51.796;10.956;2023-03-29T12:14:59;19.50;44.10
67899;DHT22;54699;51.796;10.956;2023-03-29T12:17:33;19.60;44.40
67899;DHT22;54699;51.796;10.956;2023-03-29T12:20:06;19.60;44.00
67899;DHT22;54699;51.796;10.956;2023-03-29T12:22:40;19.60;45.10
67899;DHT22;54699;51.796;10.956;2023-03-29T12:25:11;19.60;44.50
67899;DHT22;54699;51.796;10.956;2023-03-29T12:27:44;19.60;44.40
67899;DHT22;54699;51.796;10.956;2023-03-29T12:30:31;19.60;44.80
67899;DHT22;54699;51.796;10.956;2023-03-29T12:33:23;19.70;44.80
67899;DHT22;54699;51.796;10.956;2023-03-29T12:36:12;19.70;45.00
67899;DHT22;54699;51.796;10.956;2023-03-29T12:38:45;19.60;45.40
67899;DHT22;54699;51.796;10.956;2023-03-29T12:41:19;19.70;45.40
67899;DHT22;54699;51.796;10.956;2023-03-29T12:43:48;19.70;45.20
67899;DHT22;54699;51.796;10.956;2023-03-29T12:46:17;19.70;46.10
67899;DHT22;54699;51.796;10.956;2023-03-29T12:48:50;19.70;45.80
67899;DHT22;54699;51.796;10.956;2023-03-29T12:51:25;19.70;46.40
67899;DHT22;54699;51.796;10.956;2023-03-29T12:53:59;19.70;45.50
67899;DHT22;54699;51.796;10.956;2023-03-29T12:56:38;19.70;45.80
67899;DHT22;54699;51.796;10.956;2023-03-29T12:59:15;19.70;46.20
67899;DHT22;54699;51.796;10.956;2023-03-29T13:01:56;19.80;45.80
67899;DHT22;54699;51.796;10.956;2023-03-29T13:04:37;19.70;44.70
67899;DHT22;54699;51.796;10.956;2023-03-29T13:07:14;19.70;45.80
67899;DHT22;54699;51.796;10.956;2023-03-29T13:09:57;19.70;45.80
67899;DHT22;54699;51.796;10.956;2023-03-29T13:12:26;19.80;44.80
67899;DHT22;54699;51.796;10.956;2023-03-29T13:14:56;19.80;46.40
67899;DHT22;54699;51.796;10.956;2023-03-29T13:17:30;19.80;46.40
67899;DHT22;54699;51.796;10.956;2023-03-29T13:20:12;19.80;46.70
67899;DHT22;54699;51.796;10.956;2023-03-29T13:22:51;19.80;46.00
67899;DHT22;54699;51.796;10.956;2023-03-29T13:25:36;19.80;46.30
67899;DHT22;54699;51.796;10.956;2023-03-29T13:28:17;19.90;45.90
67899;DHT22;54699;51.796;10.956;2023-03-29T13:30:55;19.90;44.20
67899;DHT22;54699;51.796;10.956;2023-03-29T13:36:21;19.90;43.20
67899;DHT22;54699;51.796;10.956;2023-03-29T13:39:00;19.90;43.10
67899;DHT22;54699;51.796;10.956;2023-03-29T13:41:31;19.90;45.20
67899;DHT22;54699;51.796;10.956;2023-03-29T13:44:16;19.90;44.30
67899;DHT22;54699;51.796;10.956;2023-03-29T13:47:01;19.90;44.60
67899;DHT22;54699;51.796;10.956;2023-03-29T13:49:41;19.90;45.00
67899;DHT22;54699;51.796;10.956;2023-03-29T13:52:12;19.90;44.80
67899;DHT22;54699;51.796;10.956;2023-03-29T13:54:43;19.90;45.00
67899;DHT22;54699;51.796;10.956;2023-03-29T13:57:17;19.80;44.50
67899;DHT22;54699;51.796;10.956;2023-03-29T13:59:49;19.80;45.10
67899;DHT22;54699;51.796;10.956;2023-03-29T14:02:26;19.80;44.80
67899;DHT22;54699;51.796;10.956;2023-03-29T14:04:58;19.80;45.00
67899;DHT22;54699;51.796;10.956;2023-03-29T14:07:29;19.80;45.00
67899;DHT22;54699;51.796;10.956;2023-03-29T14:09:59;19.80;44.90
67899;DHT22;54699;51.796;10.956;2023-03-29T14:12:28;19.80;45.30
67899;DHT22;54699;51.796;10.956;2023-03-29T14:15:00;19.80;45.00
67899;DHT22;54699;51.796;10.956;2023-03-29T14:17:32;19.80;45.30
67899;DHT22;54699;51.796;10.956;2023-03-29T14:20:01;19.80;45.40
67899;DHT22;54699;51.796;10.956;2023-03-29T14:22:34;19.80;45.80
67899;DHT22;54699;51.796;10.956;2023-03-29T14:25:04;19.80;45.70
67899;DHT22;54699;51.796;10.956;2023-03-29T14:27:39;19.80;45.60
67899;DHT22;54699;51.796;10.956;2023-03-29T14:30:18;19.80;46.00
67899;DHT22;54699;51.796;10.956;2023-03-29T14:32:48;19.80;46.20
67899;DHT22;54699;51.796;10.956;2023-03-29T14:35:16;19.80;45.80
67899;DHT22;54699;51.796;10.956;2023-03-29T14:37:46;19.80;46.90
67899;DHT22;54699;51.796;10.956;2023-03-29T14:40:15;19.80;46.40
67899;DHT22;54699;51.796;10.956;2023-03-29T14:42:45;19.80;46.40
67899;DHT22;54699;51.796;10.956;2023-03-29T14:45:13;19.80;46.70
67899;DHT22;54699;51.796;10.956;2023-03-29T14:47:42;19.80;47.00
67899;DHT22;54699;51.796;10.956;2023-03-29T14:50:15;19.80;47.10
67899;DHT22;54699;51.796;10.956;2023-03-29T14:52:46;19.70;45.90
67899;DHT22;54699;51.796;10.956;2023-03-29T14:55:16;19.70;46.30
67899;DHT22;54699;51.796;10.956;2023-03-29T14:57:48;19.70;46.50
67899;DHT22;54699;51.796;10.956;2023-03-29T15:00:22;19.70;46.30
67899;DHT22;54699;51.796;10.956;2023-03-29T15:02:53;19.70;48.80
67899;DHT22;54699;51.796;10.956;2023-03-29T15:05:23;19.70;46.60
67899;DHT22;54699;51.796;10.956;2023-03-29T15:07:58;19.70;46.80
67899;DHT22;54699;51.796;10.956;2023-03-29T15:10:27;19.80;50.40
67899;DHT22;54699;51.796;10.956;2023-03-29T15:12:58;19.70;51.00
67899;DHT22;54699;51.796;10.956;2023-03-29T15:15:27;19.70;50.60
67899;DHT22;54699;51.796;10.956;2023-03-29T15:17:57;19.70;49.80
67899;DHT22;54699;51.796;10.956;2023-03-29T15:20:25;19.70;51.80
67899;DHT22;54699;51.796;10.956;2023-03-29T15:22:55;19.70;52.40
67899;DHT22;54699;51.796;10.956;2023-03-29T15:25:26;19.60;52.10
67899;DHT22;54699;51.796;10.956;2023-03-29T15:27:57;19.60;52.40
67899;DHT22;54699;51.796;10.956;2023-03-29T15:30:28;19.60;49.80
67899;DHT22;54699;51.796;10.956;2023-03-29T15:33:11;19.70;51.20
67899;DHT22;54699;51.796;10.956;2023-03-29T15:35:40;19.70;48.30
67899;DHT22;54699;51.796;10.956;2023-03-29T15:38:10;19.60;46.80
67899;DHT22;54699;51.796;10.956;2023-03-29T15:40:38;19.60;46.90
67899;DHT22;54699;51.796;10.956;2023-03-29T15:43:05;19.70;47.30
67899;DHT22;54699;51.796;10.956;2023-03-29T15:45:32;19.70;46.70
67899;DHT22;54699;51.796;10.956;2023-03-29T15:48:00;19.60;46.40
67899;DHT22;54699;51.796;10.956;2023-03-29T15:50:29;19.60;47.20
67899;DHT22;54699;51.796;10.956;2023-03-29T15:52:55;19.60;47.00